sensor_id;sensor_type;location;lat;lon;timestamp;pressure;altitude;pressure_sealevel;temperature;humidity
45078;BME280;60508;42.622;25.416;2023-04-07T00:01:43;96448.41;;;7.79;48.52
45078;BME280;60508;42.622;25.416;2023-04-07T00:04:10;96447.84;;;7.77;48.44
45078;BME280;60508;42.622;25.416;2023-04-07T00:06:37;96451.78;;;7.86;47.55
45078;BME280;60508;42.622;25.416;2023-04-07T00:09:03;96452.72;;;7.80;48.04
45078;BME280;60508;42.622;25.416;2023-04-07T00:11:30;96448.75;;;7.71;48.06
45078;BME280;60508;42.622;25.416;2023-04-07T00:13:56;96450.16;;;7.74;48.10
45078;BME280;60508;42.622;25.416;2023-04-07T00:16:22;96443.41;;;7.71;47.29
45078;BME280;60508;42.622;25.416;2023-04-07T00:18:48;96447.84;;;7.77;47.12
45078;BME280;60508;42.622;25.416;2023-04-07T00:21:14;96438.41;;;7.75;46.55
45078;BME280;60508;42.622;25.416;2023-04-07T00:23:40;96435.63;;;7.70;46.51
45078;BME280;60508;42.622;25.416;2023-04-07T00:26:07;96430.41;;;7.63;46.78
45078;BME280;60508;42.622;25.416;2023-04-07T00:28:35;96435.28;;;7.66;46.89
45078;BME280;60508;42.622;25.416;2023-04-07T00:31:01;96423.66;;;7.48;47.20
45078;BME280;60508;42.622;25.416;2023-04-07T00:33:27;96435.88;;;7.56;47.38
45078;BME280;60508;42.622;25.416;2023-04-07T00:35:52;96433.41;;;7.66;45.88
45078;BME280;60508;42.622;25.416;2023-04-07T00:38:19;96431.81;;;7.65;45.68
45078;BME280;60508;42.622;25.416;2023-04-07T00:40:45;96438.09;;;7.59;45.52
45078;BME280;60508;42.622;25.416;2023-04-07T00:43:11;96437.38;;;7.64;45.65
45078;BME280;60508;42.622;25.416;2023-04-07T00:45:37;96442.25;;;7.67;45.34
45078;BME280;60508;42.622;25.416;2023-04-07T00:48:03;96444.56;;;7.63;45.52
45078;BME280;60508;42.622;25.416;2023-04-07T00:50:30;96445.28;;;7.59;45.93
45078;BME280;60508;42.622;25.416;2023-04-07T00:52:56;96446.09;;;7.71;45.58
45078;BME280;60508;42.622;25.416;2023-04-07T00:55:22;96447.59;;;7.55;46.29
45078;BME280;60508;42.622;25.416;2023-04-07T00:57:48;96449.13;;;7.51;47.12
45078;BME280;60508;42.622;25.416;2023-04-07T01:00:16;96449.94;;;7.52;47.16
45078;BME280;60508;42.622;25.416;2023-04-07T01:02:49;96440.16;;;7.34;47.84
45078;BME280;60508;42.622;25.416;2023-04-07T01:05:45;96444.66;;;7.21;48.61
45078;BME280;60508;42.622;25.416;2023-04-07T01:08:23;96441.66;;;7.18;48.48
45078;BME280;60508;42.622;25.416;2023-04-07T01:10:56;96443.53;;;7.29;48.44
45078;BME280;60508;42.622;25.416;2023-04-07T01:13:33;96444.22;;;7.36;48.26
45078;BME280;60508;42.622;25.416;2023-04-07T01:16:12;96443.63;;;7.34;47.54
45078;BME280;60508;42.622;25.416;2023-04-07T01:18:46;96445.03;;;7.37;47.19
45078;BME280;60508;42.622;25.416;2023-04-07T01:21:17;96445.97;;;7.42;47.66
45078;BME280;60508;42.622;25.416;2023-04-07T01:24:17;96436.91;;;7.43;47.84
45078;BME280;60508;42.622;25.416;2023-04-07T01:26:49;96445.28;;;7.35;47.55
45078;BME280;60508;42.622;25.416;2023-04-07T01:29:34;96442.16;;;7.38;47.62
45078;BME280;60508;42.622;25.416;2023-04-07T01:32:03;96444.69;;;7.45;47.90
45078;BME280;60508;42.622;25.416;2023-04-07T01:34:31;96433.53;;;7.36;48.31
45078;BME280;60508;42.622;25.416;2023-04-07T01:37:00;96435.03;;;7.44;48.63
45078;BME280;60508;42.622;25.416;2023-04-07T01:39:27;96440.84;;;7.41;48.37
45078;BME280;60508;42.622;25.416;2023-04-07T01:41:54;96439.09;;;7.35;48.30
45078;BME280;60508;42.622;25.416;2023-04-07T01:44:21;96440.28;;;7.39;48.60
45078;BME280;60508;42.622;25.416;2023-04-07T01:46:48;96431.44;;;7.38;49.06
45078;BME280;60508;42.622;25.416;2023-04-07T01:49:15;96438.91;;;7.48;49.77
45078;BME280;60508;42.622;25.416;2023-04-07T01:51:44;96438.28;;;7.46;49.70
45078;BME280;60508;42.622;25.416;2023-04-07T01:54:16;96445.97;;;7.42;49.80
45078;BME280;60508;42.622;25.416;2023-04-07T01:56:43;96437.38;;;7.28;49.71
45078;BME280;60508;42.622;25.416;2023-04-07T01:59:11;96446.66;;;7.38;48.19
45078;BME280;60508;42.622;25.416;2023-04-07T02:01:37;96442.72;;;7.40;47.84
45078;BME280;60508;42.622;25.416;2023-04-07T02:07:37;96429.47;;;7.45;47.36
45078;BME280;60508;42.622;25.416;2023-04-07T02:10:07;96443.88;;;7.44;46.53
45078;BME280;60508;42.622;25.416;2023-04-07T02:12:36;96434.94;;;7.39;46.27
45078;BME280;60508;42.622;25.416;2023-04-07T02:15:13;96432.94;;;7.34;46.05
45078;BME280;60508;42.622;25.416;2023-04-07T02:17:45;96434.94;;;7.27;46.35
45078;BME280;60508;42.622;25.416;2023-04-07T02:20:14;96438.16;;;7.17;46.36
45078;BME280;60508;42.622;25.416;2023-04-07T02:22:41;96445.97;;;7.19;46.55
45078;BME280;60508;42.622;25.416;2023-04-07T02:25:28;96437.22;;;7.23;46.92
45078;BME280;60508;42.622;25.416;2023-04-07T02:27:55;96438.16;;;7.17;47.19
45078;BME280;60508;42.622;25.416;2023-04-07T02:30:22;96438.28;;;7.22;47.38
45078;BME280;60508;42.622;25.416;2023-04-07T02:32:50;96445.13;;;7.18;47.50
45078;BME280;60508;42.622;25.416;2023-04-07T02:35:16;96437.66;;;7.08;47.43
45078;BME280;60508;42.622;25.416;2023-04-07T02:37:43;96430.94;;;7.06;47.73
45078;BME280;60508;42.622;25.416;2023-04-07T02:40:10;96444.31;;;7.06;48.09
45078;BME280;60508;42.622;25.416;2023-04-07T02:42:35;96449.50;;;7.01;47.90
45078;BME280;60508;42.622;25.416;2023-04-07T02:45:03;96446.75;;;7.07;47.87
45078;BME280;60508;42.622;25.416;2023-04-07T02:47:29;96448.47;;;7.13;47.37
45078;BME280;60508;42.622;25.416;2023-04-07T02:49:55;96431.88;;;7.11;47.29
45078;BME280;60508;42.622;25.416;2023-04-07T02:52:21;96453.47;;;7.10;47.22
45078;BME280;60508;42.622;25.416;2023-04-07T02:54:48;96451.88;;;7.09;47.47
45078;BME280;60508;42.622;25.416;2023-04-07T02:57:18;96456.34;;;6.97;48.46
45078;BME280;60508;42.622;25.416;2023-04-07T02:59:45;96446.81;;;7.01;48.87
45078;BME280;60508;42.622;25.416;2023-04-07T03:02:13;96451.00;;;6.97;48.95
45078;BME280;60508;42.622;25.416;2023-04-07T03:04:40;96444.59;;;6.86;48.31
45078;BME280;60508;42.622;25.416;2023-04-07T03:07:06;96445.53;;;6.91;48.29
45078;BME280;60508;42.622;25.416;2023-04-07T03:09:33;96463.63;;;6.89;48.27
45078;BME280;60508;42.622;25.416;2023-04-07T03:11:59;96455.03;;;6.87;48.58
45078;BME280;60508;42.622;25.416;2023-04-07T03:14:29;96462.16;;;6.93;48.84
45078;BME280;60508;42.622;25.416;2023-04-07T03:16:57;96464.00;;;6.93;49.47
45078;BME280;60508;42.622;25.416;2023-04-07T03:19:23;96471.88;;;6.88;49.95
45078;BME280;60508;42.622;25.416;2023-04-07T03:21:51;96467.69;;;6.80;50.11
45078;BME280;60508;42.622;25.416;2023-04-07T03:24:17;96468.53;;;6.92;50.14
45078;BME280;60508;42.622;25.416;2023-04-07T03:26:45;96467.91;;;6.79;50.56
45078;BME280;60508;42.622;25.416;2023-04-07T03:29:18;96465.13;;;6.85;50.44
45078;BME280;60508;42.622;25.416;2023-04-07T03:31:47;96471.28;;;6.86;50.51
45078;BME280;60508;42.622;25.416;2023-04-07T03:34:21;96465.38;;;6.84;51.16
45078;BME280;60508;42.622;25.416;2023-04-07T03:36:49;96482.56;;;6.88;50.95
45078;BME280;60508;42.622;25.416;2023-04-07T03:39:16;96484.66;;;6.86;50.15
45078;BME280;60508;42.622;25.416;2023-04-07T03:41:44;96473.72;;;6.87;49.58
45078;BME280;60508;42.622;25.416;2023-04-07T03:44:10;96496.16;;;6.86;49.63
45078;BME280;60508;42.622;25.416;2023-04-07T03:46:38;96480.75;;;7.00;48.26
45078;BME280;60508;42.622;25.416;2023-04-07T03:49:05;96485.06;;;7.01;47.71
45078;BME280;60508;42.622;25.416;2023-04-07T03:51:32;96492.38;;;7.06;48.50
45078;BME280;60508;42.622;25.416;2023-04-07T03:54:00;96493.97;;;6.95;47.66
45078;BME280;60508;42.622;25.416;2023-04-07T03:56:34;96490.03;;;6.98;47.11
45078;BME280;60508;42.622;25.416;2023-04-07T03:59:00;96487.44;;;6.91;46.94
45078;BME280;60508;42.622;25.416;2023-04-07T04:01:31;96494.53;;;6.85;47.95
45078;BME280;60508;42.622;25.416;2023-04-07T04:04:04;96503.34;;;6.86;49.06
45078;BME280;60508;42.622;25.416;2023-04-07T04:06:31;96501.72;;;6.85;48.76
45078;BME280;60508;42.622;25.416;2023-04-07T04:09:05;96502.63;;;6.79;48.47
45078;BME280;60508;42.622;25.416;2023-04-07T04:11:36;96507.22;;;6.71;48.00
45078;BME280;60508;42.622;25.416;2023-04-07T04:14:04;96509.56;;;6.80;48.29
45078;BME280;60508;42.622;25.416;2023-04-07T04:16:33;96513.31;;;6.79;47.88
45078;BME280;60508;42.622;25.416;2023-04-07T04:19:08;96515.75;;;6.80;48.27
45078;BME280;60508;42.622;25.416;2023-04-07T04:21:36;96523.91;;;6.85;48.25
45078;BME280;60508;42.622;25.416;2023-04-07T04:24:02;96518.34;;;6.87;47.61
45078;BME280;60508;42.622;25.416;2023-04-07T04:26:29;96518.78;;;6.84;48.00
45078;BME280;60508;42.622;25.416;2023-04-07T04:29:01;96522.38;;;6.89;47.69
45078;BME280;60508;42.622;25.416;2023-04-07T04:31:28;96491.59;;;6.75;47.31
45078;BME280;60508;42.622;25.416;2023-04-07T04:33:55;96519.94;;;6.88;47.43
45078;BME280;60508;42.622;25.416;2023-04-07T04:36:23;96520.25;;;6.80;48.23
45078;BME280;60508;42.622;25.416;2023-04-07T04:38:54;96515.88;;;6.85;48.07
45078;BME280;60508;42.622;25.416;2023-04-07T04:41:21;96529.72;;;6.94;48.25
45078;BME280;60508;42.622;25.416;2023-04-07T04:43:49;96524.66;;;7.04;48.27
45078;BME280;60508;42.622;25.416;2023-04-07T04:46:21;96537.41;;;7.02;48.61
45078;BME280;60508;42.622;25.416;2023-04-07T04:48:48;96535.13;;;7.06;48.23
45078;BME280;60508;42.622;25.416;2023-04-07T04:51:17;96540.84;;;7.09;48.38
45078;BME280;60508;42.622;25.416;2023-04-07T04:53:47;96543.50;;;7.09;48.32
45078;BME280;60508;42.622;25.416;2023-04-07T04:56:13;96553.53;;;7.26;48.47
45078;BME280;60508;42.622;25.416;2023-04-07T04:58:45;96552.06;;;7.30;48.09
45078;BME280;60508;42.622;25.416;2023-04-07T05:01:16;96522.16;;;7.21;48.21
45078;BME280;60508;42.622;25.416;2023-04-07T05:03:50;96557.31;;;7.48;47.86
45078;BME280;60508;42.622;25.416;2023-04-07T05:06:21;96558.63;;;7.58;47.67
45078;BME280;60508;42.622;25.416;2023-04-07T05:08:50;96561.75;;;7.55;47.72
45078;BME280;60508;42.622;25.416;2023-04-07T05:11:20;96549.91;;;7.62;48.12
45078;BME280;60508;42.622;25.416;2023-04-07T05:13:51;96553.97;;;7.65;47.57
45078;BME280;60508;42.622;25.416;2023-04-07T05:16:17;96542.81;;;7.56;48.10
45078;BME280;60508;42.622;25.416;2023-04-07T05:18:45;96556.31;;;7.73;47.89
45078;BME280;60508;42.622;25.416;2023-04-07T05:21:12;96563.75;;;7.83;48.33
45078;BME280;60508;42.622;25.416;2023-04-07T05:23:40;96571.44;;;7.79;48.17
45078;BME280;60508;42.622;25.416;2023-04-07T05:26:06;96570.97;;;7.82;48.19
45078;BME280;60508;42.622;25.416;2023-04-07T05:28:34;96567.97;;;8.02;47.93
45078;BME280;60508;42.622;25.416;2023-04-07T05:31:04;96573.09;;;8.04;47.78
45078;BME280;60508;42.622;25.416;2023-04-07T05:33:31;96568.91;;;8.08;47.76
45078;BME280;60508;42.622;25.416;2023-04-07T05:35:58;96567.75;;;8.16;46.86
45078;BME280;60508;42.622;25.416;2023-04-07T05:38:24;96569.97;;;8.19;46.44
45078;BME280;60508;42.622;25.416;2023-04-07T05:40:54;96577.03;;;8.25;46.77
45078;BME280;60508;42.622;25.416;2023-04-07T05:43:25;96577.63;;;8.27;46.32
45078;BME280;60508;42.622;25.416;2023-04-07T05:45:50;96574.03;;;8.33;45.29
45078;BME280;60508;42.622;25.416;2023-04-07T05:48:16;96574.16;;;8.50;45.71
45078;BME280;60508;42.622;25.416;2023-04-07T05:50:45;96577.63;;;8.63;44.85
45078;BME280;60508;42.622;25.416;2023-04-07T05:53:14;96580.19;;;8.69;44.67
45078;BME280;60508;42.622;25.416;2023-04-07T05:55:41;96573.88;;;8.75;44.72
45078;BME280;60508;42.622;25.416;2023-04-07T05:58:10;96575.59;;;8.82;44.71
45078;BME280;60508;42.622;25.416;2023-04-07T06:00:40;96575.00;;;8.91;44.22
45078;BME280;60508;42.622;25.416;2023-04-07T06:03:11;96574.06;;;8.86;43.16
45078;BME280;60508;42.622;25.416;2023-04-07T06:05:51;96570.97;;;8.77;44.60
45078;BME280;60508;42.622;25.416;2023-04-07T06:08:19;96578.03;;;8.95;44.48
45078;BME280;60508;42.622;25.416;2023-04-07T06:10:46;96576.84;;;9.03;44.99
45078;BME280;60508;42.622;25.416;2023-04-07T06:13:11;96575.00;;;8.91;43.81
45078;BME280;60508;42.622;25.416;2023-04-07T06:15:38;96591.78;;;8.87;44.21
45078;BME280;60508;42.622;25.416;2023-04-07T06:18:04;96583.28;;;8.90;43.62
45078;BME280;60508;42.622;25.416;2023-04-07T06:20:30;96585.63;;;9.15;42.70
45078;BME280;60508;42.622;25.416;2023-04-07T06:22:56;96583.19;;;9.13;42.92
45078;BME280;60508;42.622;25.416;2023-04-07T06:25:23;96588.69;;;9.07;43.40
45078;BME280;60508;42.622;25.416;2023-04-07T06:27:49;96588.88;;;9.17;42.89
45078;BME280;60508;42.622;25.416;2023-04-07T06:30:14;96589.31;;;9.26;43.99
45078;BME280;60508;42.622;25.416;2023-04-07T06:32:40;96585.97;;;9.19;43.48
45078;BME280;60508;42.622;25.416;2023-04-07T06:35:07;96599.97;;;9.21;42.91
45078;BME280;60508;42.622;25.416;2023-04-07T06:37:34;96595.16;;;7.76;44.95
45078;BME280;60508;42.622;25.416;2023-04-07T06:40:01;96601.47;;;8.05;45.57
45078;BME280;60508;42.622;25.416;2023-04-07T06:42:27;96602.78;;;8.62;44.26
45078;BME280;60508;42.622;25.416;2023-04-07T06:45:13;96609.00;;;8.91;44.40
45078;BME280;60508;42.622;25.416;2023-04-07T06:47:39;96606.03;;;8.75;42.91
45078;BME280;60508;42.622;25.416;2023-04-07T06:50:07;96620.47;;;8.74;43.50
45078;BME280;60508;42.622;25.416;2023-04-07T06:52:33;96617.22;;;9.13;43.08
45078;BME280;60508;42.622;25.416;2023-04-07T06:54:59;96621.16;;;9.51;42.25
45078;BME280;60508;42.622;25.416;2023-04-07T06:57:25;96618.66;;;9.61;41.51
45078;BME280;60508;42.622;25.416;2023-04-07T06:59:52;96616.63;;;9.52;41.93
45078;BME280;60508;42.622;25.416;2023-04-07T07:02:18;96627.59;;;9.67;42.03
45078;BME280;60508;42.622;25.416;2023-04-07T07:04:44;96609.06;;;9.65;42.02
45078;BME280;60508;42.622;25.416;2023-04-07T07:07:11;96619.91;;;9.87;42.49
45078;BME280;60508;42.622;25.416;2023-04-07T07:09:37;96621.63;;;10.11;41.71
45078;BME280;60508;42.622;25.416;2023-04-07T07:12:03;96628.00;;;10.38;41.37
45078;BME280;60508;42.622;25.416;2023-04-07T07:14:31;96629.31;;;10.53;40.75
45078;BME280;60508;42.622;25.416;2023-04-07T07:16:57;96634.50;;;10.43;40.37
45078;BME280;60508;42.622;25.416;2023-04-07T07:19:23;96641.66;;;10.54;39.89
45078;BME280;60508;42.622;25.416;2023-04-07T07:21:50;96644.41;;;10.08;40.79
45078;BME280;60508;42.622;25.416;2023-04-07T07:24:16;96646.72;;;10.50;40.86
45078;BME280;60508;42.622;25.416;2023-04-07T07:26:43;96637.59;;;10.90;40.46
45078;BME280;60508;42.622;25.416;2023-04-07T07:29:11;96654.38;;;11.20;39.53
45078;BME280;60508;42.622;25.416;2023-04-07T07:31:37;96649.72;;;10.93;39.73
45078;BME280;60508;42.622;25.416;2023-04-07T07:34:03;96644.50;;;11.03;38.96
45078;BME280;60508;42.622;25.416;2023-04-07T07:36:30;96651.78;;;10.86;37.98
45078;BME280;60508;42.622;25.416;2023-04-07T07:38:58;96651.38;;;10.77;38.49
45078;BME280;60508;42.622;25.416;2023-04-07T07:41:24;96653.19;;;11.32;38.05
45078;BME280;60508;42.622;25.416;2023-04-07T07:43:51;96649.28;;;11.45;38.36
45078;BME280;60508;42.622;25.416;2023-04-07T07:46:17;96649.69;;;11.86;38.04
45078;BME280;60508;42.622;25.416;2023-04-07T07:48:43;96656.34;;;11.51;38.13
45078;BME280;60508;42.622;25.416;2023-04-07T07:51:11;96646.81;;;11.93;37.51
45078;BME280;60508;42.622;25.416;2023-04-07T07:53:37;96643.66;;;10.64;39.21
45078;BME280;60508;42.622;25.416;2023-04-07T07:56:05;96651.19;;;11.23;38.64
45078;BME280;60508;42.622;25.416;2023-04-07T07:58:32;96641.88;;;11.58;38.44
45078;BME280;60508;42.622;25.416;2023-04-07T08:00:57;96645.91;;;11.82;38.05
45078;BME280;60508;42.622;25.416;2023-04-07T08:03:23;96647.69;;;11.99;37.47
45078;BME280;60508;42.622;25.416;2023-04-07T08:05:51;96638.88;;;12.09;37.92
45078;BME280;60508;42.622;25.416;2023-04-07T08:08:17;96645.72;;;12.21;36.80
45078;BME280;60508;42.622;25.416;2023-04-07T08:10:43;96644.97;;;12.26;36.66
45078;BME280;60508;42.622;25.416;2023-04-07T08:13:09;96648.38;;;12.16;37.10
45078;BME280;60508;42.622;25.416;2023-04-07T08:15:36;96646.00;;;12.20;38.17
45078;BME280;60508;42.622;25.416;2023-04-07T08:18:02;96653.28;;;12.19;37.53
45078;BME280;60508;42.622;25.416;2023-04-07T08:20:31;96656.94;;;12.08;36.95
45078;BME280;60508;42.622;25.416;2023-04-07T08:22:58;96647.03;;;12.51;36.44
45078;BME280;60508;42.622;25.416;2023-04-07T08:25:24;96654.53;;;12.87;36.74
45078;BME280;60508;42.622;25.416;2023-04-07T08:27:50;96643.78;;;12.92;35.74
45078;BME280;60508;42.622;25.416;2023-04-07T08:30:17;96652.28;;;11.98;37.18
45078;BME280;60508;42.622;25.416;2023-04-07T08:32:45;96655.06;;;12.09;36.19
45078;BME280;60508;42.622;25.416;2023-04-07T08:35:14;96643.69;;;12.34;37.38
45078;BME280;60508;42.622;25.416;2023-04-07T08:37:41;96646.66;;;12.37;36.85
45078;BME280;60508;42.622;25.416;2023-04-07T08:40:09;96646.66;;;12.75;36.42
45078;BME280;60508;42.622;25.416;2023-04-07T08:42:40;96643.69;;;12.34;36.04
45078;BME280;60508;42.622;25.416;2023-04-07T08:45:07;96633.03;;;11.62;37.55
45078;BME280;60508;42.622;25.416;2023-04-07T08:47:35;96642.72;;;12.50;36.63
45078;BME280;60508;42.622;25.416;2023-04-07T08:50:06;96638.63;;;12.42;35.67
45078;BME280;60508;42.622;25.416;2023-04-07T08:52:39;96635.91;;;13.33;35.73
45078;BME280;60508;42.622;25.416;2023-04-07T08:55:07;96631.47;;;13.95;34.02
45078;BME280;60508;42.622;25.416;2023-04-07T08:57:33;96637.41;;;14.13;33.52
45078;BME280;60508;42.622;25.416;2023-04-07T09:00:01;96638.75;;;14.67;32.50
45078;BME280;60508;42.622;25.416;2023-04-07T09:02:36;96634.44;;;14.40;31.53
45078;BME280;60508;42.622;25.416;2023-04-07T09:05:04;96634.16;;;14.00;33.40
45078;BME280;60508;42.622;25.416;2023-04-07T09:07:32;96636.59;;;14.33;32.59
45078;BME280;60508;42.622;25.416;2023-04-07T09:09:59;96640.88;;;14.80;31.13
45078;BME280;60508;42.622;25.416;2023-04-07T09:12:27;96633.16;;;15.28;31.61
45078;BME280;60508;42.622;25.416;2023-04-07T09:14:56;96639.59;;;16.32;30.21
45078;BME280;60508;42.622;25.416;2023-04-07T09:17:27;96634.50;;;16.84;29.13
45078;BME280;60508;42.622;25.416;2023-04-07T09:19:58;96620.66;;;18.95;27.08
45078;BME280;60508;42.622;25.416;2023-04-07T09:22:35;96632.88;;;19.11;26.75
45078;BME280;60508;42.622;25.416;2023-04-07T09:25:15;96631.38;;;18.25;26.89
45078;BME280;60508;42.622;25.416;2023-04-07T09:28:02;96635.25;;;15.97;29.11
45078;BME280;60508;42.622;25.416;2023-04-07T09:30:33;96646.00;;;14.92;31.39
45078;BME280;60508;42.622;25.416;2023-04-07T09:33:00;96635.41;;;15.06;30.93
45078;BME280;60508;42.622;25.416;2023-04-07T09:35:26;96627.88;;;14.92;31.60
45078;BME280;60508;42.622;25.416;2023-04-07T09:38:03;96632.53;;;14.61;31.36
45078;BME280;60508;42.622;25.416;2023-04-07T09:40:31;96625.47;;;14.55;31.60
45078;BME280;60508;42.622;25.416;2023-04-07T09:42:57;96626.34;;;14.30;31.49
45078;BME280;60508;42.622;25.416;2023-04-07T09:45:27;96622.81;;;14.45;32.05
45078;BME280;60508;42.622;25.416;2023-04-07T09:47:54;96625.25;;;14.41;32.25
45078;BME280;60508;42.622;25.416;2023-04-07T09:50:30;96623.34;;;14.41;31.42
45078;BME280;60508;42.622;25.416;2023-04-07T09:52:57;96617.69;;;14.33;31.95
45078;BME280;60508;42.622;25.416;2023-04-07T09:55:23;96614.66;;;14.75;32.13
45078;BME280;60508;42.622;25.416;2023-04-07T09:57:50;96620.19;;;15.25;31.13
45078;BME280;60508;42.622;25.416;2023-04-07T10:00:17;96619.69;;;15.18;30.80
45078;BME280;60508;42.622;25.416;2023-04-07T10:02:45;96624.78;;;15.30;31.53
45078;BME280;60508;42.622;25.416;2023-04-07T10:05:11;96622.09;;;15.25;30.71
45078;BME280;60508;42.622;25.416;2023-04-07T10:07:38;96619.47;;;14.99;30.91
45078;BME280;60508;42.622;25.416;2023-04-07T10:10:04;96620.31;;;14.94;31.25
45078;BME280;60508;42.622;25.416;2023-04-07T10:12:38;96617.03;;;14.97;31.56
45078;BME280;60508;42.622;25.416;2023-04-07T10:15:06;96614.59;;;15.01;30.85
45078;BME280;60508;42.622;25.416;2023-04-07T10:17:34;96616.81;;;14.78;31.68
45078;BME280;60508;42.622;25.416;2023-04-07T10:20:01;96617.41;;;14.14;31.87
45078;BME280;60508;42.622;25.416;2023-04-07T10:22:30;96610.94;;;13.84;32.66
45078;BME280;60508;42.622;25.416;2023-04-07T10:25:03;96610.63;;;13.85;33.27
45078;BME280;60508;42.622;25.416;2023-04-07T10:27:34;96614.13;;;13.76;33.29
45078;BME280;60508;42.622;25.416;2023-04-07T10:30:03;96614.66;;;13.67;32.47
45078;BME280;60508;42.622;25.416;2023-04-07T10:32:30;96613.59;;;13.68;32.84
45078;BME280;60508;42.622;25.416;2023-04-07T10:34:58;96611.19;;;14.29;33.22
45078;BME280;60508;42.622;25.416;2023-04-07T10:37:24;96616.84;;;14.48;31.95
45078;BME280;60508;42.622;25.416;2023-04-07T10:42:53;96612.72;;;14.96;31.61
45078;BME280;60508;42.622;25.416;2023-04-07T10:48:14;96620.63;;;14.67;31.86
45078;BME280;60508;42.622;25.416;2023-04-07T10:50:40;96618.22;;;14.40;32.38
45078;BME280;60508;42.622;25.416;2023-04-07T10:53:08;96618.50;;;14.23;31.48
45078;BME280;60508;42.622;25.416;2023-04-07T10:55:38;96621.72;;;13.99;31.24
45078;BME280;60508;42.622;25.416;2023-04-07T10:58:24;96624.44;;;13.89;32.89
45078;BME280;60508;42.622;25.416;2023-04-07T11:03:37;96620.66;;;14.31;31.87
45078;BME280;60508;42.622;25.416;2023-04-07T11:08:39;96631.44;;;14.47;31.29
45078;BME280;60508;42.622;25.416;2023-04-07T11:11:10;96628.47;;;14.74;31.17
45078;BME280;60508;42.622;25.416;2023-04-07T11:16:07;96628.47;;;14.74;31.99
45078;BME280;60508;42.622;25.416;2023-04-07T11:18:35;96626.59;;;14.54;31.57
45078;BME280;60508;42.622;25.416;2023-04-07T11:21:02;96620.09;;;14.24;32.09
45078;BME280;60508;42.622;25.416;2023-04-07T11:23:39;96615.25;;;14.11;32.69
45078;BME280;60508;42.622;25.416;2023-04-07T11:26:08;96622.81;;;14.29;31.90
45078;BME280;60508;42.622;25.416;2023-04-07T11:28:47;96615.91;;;15.14;31.13
45078;BME280;60508;42.622;25.416;2023-04-07T11:31:27;96613.50;;;15.62;31.37
45078;BME280;60508;42.622;25.416;2023-04-07T11:34:04;96617.50;;;15.20;30.90
45078;BME280;60508;42.622;25.416;2023-04-07T11:36:36;96618.72;;;14.78;31.78
45078;BME280;60508;42.622;25.416;2023-04-07T11:39:03;96619.72;;;15.08;31.56
45078;BME280;60508;42.622;25.416;2023-04-07T11:41:31;96611.44;;;15.39;31.37
45078;BME280;60508;42.622;25.416;2023-04-07T11:44:08;96614.78;;;15.80;31.14
45078;BME280;60508;42.622;25.416;2023-04-07T11:46:34;96612.97;;;16.05;31.43
45078;BME280;60508;42.622;25.416;2023-04-07T11:49:09;96601.31;;;16.04;30.28
45078;BME280;60508;42.622;25.416;2023-04-07T11:51:37;96616.09;;;16.52;30.70
45078;BME280;60508;42.622;25.416;2023-04-07T11:54:05;96610.16;;;17.27;30.48
45078;BME280;60508;42.622;25.416;2023-04-07T11:56:45;96603.66;;;17.04;28.83
45078;BME280;60508;42.622;25.416;2023-04-07T11:59:19;96614.00;;;16.73;28.94
45078;BME280;60508;42.622;25.416;2023-04-07T12:01:48;96609.84;;;16.80;29.14
45078;BME280;60508;42.622;25.416;2023-04-07T12:04:15;96611.75;;;15.87;29.68
45078;BME280;60508;42.622;25.416;2023-04-07T12:06:42;96614.56;;;16.40;30.55
45078;BME280;60508;42.622;25.416;2023-04-07T12:09:25;96605.41;;;17.38;29.61
45078;BME280;60508;42.622;25.416;2023-04-07T12:11:54;96600.78;;;18.01;28.45
45078;BME280;60508;42.622;25.416;2023-04-07T12:14:23;96610.66;;;18.30;27.11
45078;BME280;60508;42.622;25.416;2023-04-07T12:16:49;96602.03;;;18.22;27.55
45078;BME280;60508;42.622;25.416;2023-04-07T12:19:17;96601.84;;;17.81;28.10
45078;BME280;60508;42.622;25.416;2023-04-07T12:21:43;96609.09;;;17.66;27.61
45078;BME280;60508;42.622;25.416;2023-04-07T12:24:10;96610.16;;;17.27;28.60
45078;BME280;60508;42.622;25.416;2023-04-07T12:26:37;96613.31;;;16.91;28.35
45078;BME280;60508;42.622;25.416;2023-04-07T12:29:03;96612.78;;;16.84;28.49
45078;BME280;60508;42.622;25.416;2023-04-07T12:31:30;96611.00;;;17.28;27.60
45078;BME280;60508;42.622;25.416;2023-04-07T12:33:57;96609.97;;;17.43;28.31
45078;BME280;60508;42.622;25.416;2023-04-07T12:36:25;96606.03;;;17.54;28.39
45078;BME280;60508;42.622;25.416;2023-04-07T12:38:53;96607.69;;;17.93;28.32
45078;BME280;60508;42.622;25.416;2023-04-07T12:41:19;96611.56;;;18.72;26.83
45078;BME280;60508;42.622;25.416;2023-04-07T12:43:45;96606.53;;;19.07;26.44
45078;BME280;60508;42.622;25.416;2023-04-07T12:46:11;96606.38;;;18.56;27.57
45078;BME280;60508;42.622;25.416;2023-04-07T12:48:38;96598.72;;;17.93;28.11
45078;BME280;60508;42.622;25.416;2023-04-07T12:51:05;96605.34;;;17.43;28.82
45078;BME280;60508;42.622;25.416;2023-04-07T12:53:31;96605.34;;;16.71;30.27
45078;BME280;60508;42.622;25.416;2023-04-07T12:55:57;96607.63;;;16.29;30.61
45078;BME280;60508;42.622;25.416;2023-04-07T12:58:24;96610.94;;;15.86;31.03
45078;BME280;60508;42.622;25.416;2023-04-07T13:00:52;96610.88;;;15.47;32.68
45078;BME280;60508;42.622;25.416;2023-04-07T13:03:19;96618.13;;;15.57;32.87
45078;BME280;60508;42.622;25.416;2023-04-07T13:05:45;96615.84;;;15.84;32.38
45078;BME280;60508;42.622;25.416;2023-04-07T13:08:13;96613.50;;;16.41;30.53
45078;BME280;60508;42.622;25.416;2023-04-07T13:10:39;96598.75;;;18.06;28.86
45078;BME280;60508;42.622;25.416;2023-04-07T13:13:07;96599.56;;;19.42;26.39
45078;BME280;60508;42.622;25.416;2023-04-07T13:15:33;96602.03;;;19.30;26.38
45078;BME280;60508;42.622;25.416;2023-04-07T13:17:59;96608.88;;;19.00;27.30
45078;BME280;60508;42.622;25.416;2023-04-07T13:20:27;96611.47;;;19.32;26.11